sensor_id;sensor_type;location;lat;lon;timestamp;P1;durP1;ratioP1;P2;durP2;ratioP2
19782;SDS011;10051;40.294;-3.754;2023-07-29T00:01:50;9.15;;;3.95;;
19782;SDS011;10051;40.294;-3.754;2023-07-29T00:04:16;8.30;;;4.00;;
19782;SDS011;10051;40.294;-3.754;2023-07-29T00:06:42;7.10;;;3.90;;
19782;SDS011;10051;40.294;-3.754;2023-07-29T00:09:07;7.53;;;3.85;;
19782;SDS011;10051;40.294;-3.754;2023-07-29T00:11:33;6.05;;;3.63;;
19782;SDS011;10051;40.294;-3.754;2023-07-29T00:14:00;7.28;;;3.63;;
19782;SDS011;10051;40.294;-3.754;2023-07-29T00:16:26;8.82;;;3.80;;
19782;SDS011;10051;40.294;-3.754;2023-07-29T00:18:52;7.47;;;4.10;;
19782;SDS011;10051;40.294;-3.754;2023-07-29T00:21:17;6.85;;;3.53;;
19782;SDS011;10051;40.294;-3.754;2023-07-29T00:23:43;7.47;;;3.67;;
19782;SDS011;10051;40.294;-3.754;2023-07-29T00:26:08;6.40;;;3.80;;
19782;SDS011;10051;40.294;-3.754;2023-07-29T00:28:34;4.88;;;3.42;;
19782;SDS011;10051;40.294;-3.754;2023-07-29T00:31:00;6.00;;;3.80;;
19782;SDS011;10051;40.294;-3.754;2023-07-29T00:33:27;5.50;;;3.92;;
19782;SDS011;10051;40.294;-3.754;2023-07-29T00:35:52;6.60;;;3.97;;
19782;SDS011;10051;40.294;-3.754;2023-07-29T00:38:18;6.55;;;3.45;;
19782;SDS011;10051;40.294;-3.754;2023-07-29T00:40:44;7.63;;;3.80;;
19782;SDS011;10051;40.294;-3.754;2023-07-29T00:43:09;6.68;;;3.70;;
19782;SDS011;10051;40.294;-3.754;2023-07-29T00:45:35;6.85;;;3.60;;
19782;SDS011;10051;40.294;-3.754;2023-07-29T00:48:02;7.15;;;3.88;;
19782;SDS011;10051;40.294;-3.754;2023-07-29T00:50:28;7.07;;;4.13;;
19782;SDS011;10051;40.294;-3.754;2023-07-29T00:52:56;5.40;;;3.78;;
19782;SDS011;10051;40.294;-3.754;2023-07-29T00:55:22;5.78;;;3.80;;
19782;SDS011;10051;40.294;-3.754;2023-07-29T00:57:48;6.57;;;3.67;;
19782;SDS011;10051;40.294;-3.754;2023-07-29T01:00:16;7.15;;;3.42;;
19782;SDS011;10051;40.294;-3.754;2023-07-29T01:02:42;5.47;;;3.50;;
19782;SDS011;10051;40.294;-3.754;2023-07-29T01:05:11;7.20;;;3.53;;
19782;SDS011;10051;40.294;-3.754;2023-07-29T01:07:43;5.25;;;3.30;;
19782;SDS011;10051;40.294;-3.754;2023-07-29T01:10:13;5.00;;;3.38;;
19782;SDS011;10051;40.294;-3.754;2023-07-29T01:12:54;5.68;;;3.70;;
19782;SDS011;10051;40.294;-3.754;2023-07-29T01:18:02;5.45;;;3.13;;
19782;SDS011;10051;40.294;-3.754;2023-07-29T01:20:34;5.20;;;3.40;;
19782;SDS011;10051;40.294;-3.754;2023-07-29T01:23:03;5.75;;;3.10;;
19782;SDS011;10051;40.294;-3.754;2023-07-29T01:25:29;4.18;;;2.92;;
19782;SDS011;10051;40.294;-3.754;2023-07-29T01:27:55;7.38;;;2.90;;
19782;SDS011;10051;40.294;-3.754;2023-07-29T01:30:22;10.55;;;3.22;;
19782;SDS011;10051;40.294;-3.754;2023-07-29T01:35:39;3.85;;;2.90;;
19782;SDS011;10051;40.294;-3.754;2023-07-29T01:38:13;6.00;;;3.20;;
19782;SDS011;10051;40.294;-3.754;2023-07-29T01:40:43;5.20;;;2.90;;
19782;SDS011;10051;40.294;-3.754;2023-07-29T01:43:10;4.78;;;2.80;;
19782;SDS011;10051;40.294;-3.754;2023-07-29T01:45:35;4.53;;;3.00;;
19782;SDS011;10051;40.294;-3.754;2023-07-29T01:48:05;4.85;;;3.00;;
19782;SDS011;10051;40.294;-3.754;2023-07-29T01:50:31;5.25;;;2.60;;
19782;SDS011;10051;40.294;-3.754;2023-07-29T01:52:59;5.95;;;2.88;;
19782;SDS011;10051;40.294;-3.754;2023-07-29T01:55:25;5.80;;;2.80;;
19782;SDS011;10051;40.294;-3.754;2023-07-29T01:57:51;8.95;;;3.00;;
19782;SDS011;10051;40.294;-3.754;2023-07-29T02:00:21;3.80;;;3.00;;
19782;SDS011;10051;40.294;-3.754;2023-07-29T02:02:46;6.65;;;3.00;;
19782;SDS011;10051;40.294;-3.754;2023-07-29T02:05:12;4.70;;;2.60;;
19782;SDS011;10051;40.294;-3.754;2023-07-29T02:07:38;4.70;;;3.00;;
19782;SDS011;10051;40.294;-3.754;2023-07-29T02:10:03;5.70;;;2.90;;
19782;SDS011;10051;40.294;-3.754;2023-07-29T02:12:29;4.60;;;2.63;;
19782;SDS011;10051;40.294;-3.754;2023-07-29T02:14:55;4.15;;;2.53;;
19782;SDS011;10051;40.294;-3.754;2023-07-29T02:17:20;4.47;;;2.50;;
19782;SDS011;10051;40.294;-3.754;2023-07-29T02:19:46;4.47;;;2.70;;
19782;SDS011;10051;40.294;-3.754;2023-07-29T02:22:16;3.70;;;2.60;;
19782;SDS011;10051;40.294;-3.754;2023-07-29T02:24:43;4.18;;;2.78;;
19782;SDS011;10051;40.294;-3.754;2023-07-29T02:27:09;3.83;;;2.55;;
19782;SDS011;10051;40.294;-3.754;2023-07-29T02:29:34;5.57;;;2.72;;
19782;SDS011;10051;40.294;-3.754;2023-07-29T02:32:00;6.60;;;2.75;;
19782;SDS011;10051;40.294;-3.754;2023-07-29T02:34:26;6.68;;;2.42;;
19782;SDS011;10051;40.294;-3.754;2023-07-29T02:36:51;4.43;;;2.30;;
19782;SDS011;10051;40.294;-3.754;2023-07-29T02:39:17;4.65;;;2.30;;
19782;SDS011;10051;40.294;-3.754;2023-07-29T02:41:42;4.50;;;2.20;;
19782;SDS011;10051;40.294;-3.754;2023-07-29T02:44:08;7.35;;;2.50;;
19782;SDS011;10051;40.294;-3.754;2023-07-29T02:46:33;5.03;;;2.40;;
19782;SDS011;10051;40.294;-3.754;2023-07-29T02:48:59;4.00;;;2.60;;
19782;SDS011;10051;40.294;-3.754;2023-07-29T02:51:24;5.82;;;2.50;;
19782;SDS011;10051;40.294;-3.754;2023-07-29T02:53:50;3.72;;;2.20;;
19782;SDS011;10051;40.294;-3.754;2023-07-29T02:56:16;4.15;;;2.53;;
19782;SDS011;10051;40.294;-3.754;2023-07-29T02:58:41;3.95;;;2.33;;
19782;SDS011;10051;40.294;-3.754;2023-07-29T03:01:07;3.63;;;2.45;;
19782;SDS011;10051;40.294;-3.754;2023-07-29T03:03:33;6.13;;;2.40;;
19782;SDS011;10051;40.294;-3.754;2023-07-29T03:06:03;4.28;;;2.40;;
19782;SDS011;10051;40.294;-3.754;2023-07-29T03:08:30;4.35;;;2.60;;
19782;SDS011;10051;40.294;-3.754;2023-07-29T03:10:56;4.68;;;2.25;;
19782;SDS011;10051;40.294;-3.754;2023-07-29T03:13:22;3.03;;;2.00;;
19782;SDS011;10051;40.294;-3.754;2023-07-29T03:15:48;5.88;;;2.30;;
19782;SDS011;10051;40.294;-3.754;2023-07-29T03:18:14;4.53;;;2.30;;
19782;SDS011;10051;40.294;-3.754;2023-07-29T03:20:40;5.70;;;2.22;;
19782;SDS011;10051;40.294;-3.754;2023-07-29T03:23:06;4.10;;;2.15;;
19782;SDS011;10051;40.294;-3.754;2023-07-29T03:25:31;6.43;;;2.22;;
19782;SDS011;10051;40.294;-3.754;2023-07-29T03:27:57;4.32;;;2.47;;
19782;SDS011;10051;40.294;-3.754;2023-07-29T03:30:22;6.18;;;2.08;;
19782;SDS011;10051;40.294;-3.754;2023-07-29T03:32:48;4.57;;;2.15;;
19782;SDS011;10051;40.294;-3.754;2023-07-29T03:35:14;4.32;;;2.20;;
19782;SDS011;10051;40.294;-3.754;2023-07-29T03:37:40;3.05;;;2.00;;
19782;SDS011;10051;40.294;-3.754;2023-07-29T03:40:09;4.13;;;2.10;;
19782;SDS011;10051;40.294;-3.754;2023-07-29T03:42:35;4.57;;;1.88;;
19782;SDS011;10051;40.294;-3.754;2023-07-29T03:45:01;3.47;;;1.98;;
19782;SDS011;10051;40.294;-3.754;2023-07-29T03:47:27;4.07;;;2.00;;
19782;SDS011;10051;40.294;-3.754;2023-07-29T03:49:53;4.13;;;1.90;;
19782;SDS011;10051;40.294;-3.754;2023-07-29T03:52:18;4.30;;;2.00;;
19782;SDS011;10051;40.294;-3.754;2023-07-29T03:54:44;6.05;;;1.88;;
19782;SDS011;10051;40.294;-3.754;2023-07-29T03:57:09;6.95;;;2.00;;
19782;SDS011;10051;40.294;-3.754;2023-07-29T03:59:35;3.95;;;1.83;;
19782;SDS011;10051;40.294;-3.754;2023-07-29T04:02:00;4.90;;;1.70;;
19782;SDS011;10051;40.294;-3.754;2023-07-29T04:04:26;2.83;;;1.60;;
19782;SDS011;10051;40.294;-3.754;2023-07-29T04:06:52;3.22;;;1.50;;
19782;SDS011;10051;40.294;-3.754;2023-07-29T04:09:17;4.00;;;1.98;;
19782;SDS011;10051;40.294;-3.754;2023-07-29T04:11:43;4.47;;;1.80;;
19782;SDS011;10051;40.294;-3.754;2023-07-29T04:14:08;2.63;;;1.70;;
19782;SDS011;10051;40.294;-3.754;2023-07-29T04:16:34;3.88;;;1.70;;
19782;SDS011;10051;40.294;-3.754;2023-07-29T04:19:00;7.40;;;1.80;;
19782;SDS011;10051;40.294;-3.754;2023-07-29T04:21:25;4.65;;;1.73;;
19782;SDS011;10051;40.294;-3.754;2023-07-29T04:23:51;4.45;;;1.55;;
19782;SDS011;10051;40.294;-3.754;2023-07-29T04:26:16;4.72;;;2.03;;
19782;SDS011;10051;40.294;-3.754;2023-07-29T04:28:42;3.28;;;1.90;;
19782;SDS011;10051;40.294;-3.754;2023-07-29T04:31:08;7.78;;;2.70;;
19782;SDS011;10051;40.294;-3.754;2023-07-29T04:33:33;4.72;;;2.40;;
19782;SDS011;10051;40.294;-3.754;2023-07-29T04:35:59;6.85;;;2.53;;
19782;SDS011;10051;40.294;-3.754;2023-07-29T04:38:30;2.88;;;2.10;;
19782;SDS011;10051;40.294;-3.754;2023-07-29T04:41:00;5.72;;;2.15;;
19782;SDS011;10051;40.294;-3.754;2023-07-29T04:43:27;6.88;;;2.20;;
19782;SDS011;10051;40.294;-3.754;2023-07-29T04:45:53;4.70;;;2.33;;
19782;SDS011;10051;40.294;-3.754;2023-07-29T04:48:19;5.72;;;2.22;;
19782;SDS011;10051;40.294;-3.754;2023-07-29T04:50:45;3.42;;;2.30;;
19782;SDS011;10051;40.294;-3.754;2023-07-29T04:53:11;4.38;;;2.40;;
19782;SDS011;10051;40.294;-3.754;2023-07-29T04:55:36;4.60;;;2.40;;
19782;SDS011;10051;40.294;-3.754;2023-07-29T04:58:02;4.50;;;2.17;;
19782;SDS011;10051;40.294;-3.754;2023-07-29T05:00:27;3.50;;;1.90;;
19782;SDS011;10051;40.294;-3.754;2023-07-29T05:02:53;3.97;;;1.67;;
19782;SDS011;10051;40.294;-3.754;2023-07-29T05:05:19;4.40;;;2.00;;
19782;SDS011;10051;40.294;-3.754;2023-07-29T05:07:44;3.20;;;1.80;;
19782;SDS011;10051;40.294;-3.754;2023-07-29T05:10:10;3.45;;;1.77;;
19782;SDS011;10051;40.294;-3.754;2023-07-29T05:12:36;2.97;;;1.77;;
19782;SDS011;10051;40.294;-3.754;2023-07-29T05:15:02;3.58;;;1.77;;
19782;SDS011;10051;40.294;-3.754;2023-07-29T05:17:27;5.78;;;1.80;;
19782;SDS011;10051;40.294;-3.754;2023-07-29T05:19:53;26.40;;;2.20;;
19782;SDS011;10051;40.294;-3.754;2023-07-29T05:22:19;5.90;;;2.00;;
19782;SDS011;10051;40.294;-3.754;2023-07-29T05:24:44;5.70;;;1.88;;
19782;SDS011;10051;40.294;-3.754;2023-07-29T05:27:10;2.95;;;1.70;;
19782;SDS011;10051;40.294;-3.754;2023-07-29T05:29:35;3.67;;;1.90;;
19782;SDS011;10051;40.294;-3.754;2023-07-29T05:32:01;4.47;;;1.73;;
19782;SDS011;10051;40.294;-3.754;2023-07-29T05:34:27;3.30;;;1.60;;
19782;SDS011;10051;40.294;-3.754;2023-07-29T05:36:52;3.17;;;1.60;;
19782;SDS011;10051;40.294;-3.754;2023-07-29T05:39:18;3.15;;;1.80;;
19782;SDS011;10051;40.294;-3.754;2023-07-29T05:41:43;3.70;;;1.63;;
19782;SDS011;10051;40.294;-3.754;2023-07-29T05:44:09;3.50;;;1.90;;
19782;SDS011;10051;40.294;-3.754;2023-07-29T05:46:34;4.15;;;1.80;;
19782;SDS011;10051;40.294;-3.754;2023-07-29T05:49:00;3.35;;;1.70;;
19782;SDS011;10051;40.294;-3.754;2023-07-29T05:51:26;3.72;;;1.63;;
19782;SDS011;10051;40.294;-3.754;2023-07-29T05:53:51;3.15;;;1.70;;
19782;SDS011;10051;40.294;-3.754;2023-07-29T05:56:17;3.42;;;1.67;;
19782;SDS011;10051;40.294;-3.754;2023-07-29T05:58:42;6.65;;;1.70;;
19782;SDS011;10051;40.294;-3.754;2023-07-29T06:01:09;3.58;;;1.70;;
19782;SDS011;10051;40.294;-3.754;2023-07-29T06:03:34;6.25;;;2.28;;
19782;SDS011;10051;40.294;-3.754;2023-07-29T06:06:00;13.77;;;3.85;;
19782;SDS011;10051;40.294;-3.754;2023-07-29T06:08:25;10.93;;;5.00;;
19782;SDS011;10051;40.294;-3.754;2023-07-29T06:10:53;12.55;;;4.85;;
19782;SDS011;10051;40.294;-3.754;2023-07-29T06:13:19;16.65;;;5.20;;
19782;SDS011;10051;40.294;-3.754;2023-07-29T06:15:44;13.82;;;4.97;;
19782;SDS011;10051;40.294;-3.754;2023-07-29T06:18:10;13.00;;;5.00;;
19782;SDS011;10051;40.294;-3.754;2023-07-29T06:20:38;13.15;;;4.80;;
19782;SDS011;10051;40.294;-3.754;2023-07-29T06:23:03;11.48;;;5.40;;
19782;SDS011;10051;40.294;-3.754;2023-07-29T06:25:29;10.05;;;5.13;;
19782;SDS011;10051;40.294;-3.754;2023-07-29T06:27:55;16.70;;;6.40;;
19782;SDS011;10051;40.294;-3.754;2023-07-29T06:30:20;15.15;;;6.38;;
19782;SDS011;10051;40.294;-3.754;2023-07-29T06:32:46;15.20;;;6.78;;
19782;SDS011;10051;40.294;-3.754;2023-07-29T06:35:11;19.40;;;7.07;;
19782;SDS011;10051;40.294;-3.754;2023-07-29T06:37:37;18.58;;;7.10;;
19782;SDS011;10051;40.294;-3.754;2023-07-29T06:40:03;14.23;;;6.28;;
19782;SDS011;10051;40.294;-3.754;2023-07-29T06:42:29;12.32;;;6.50;;
19782;SDS011;10051;40.294;-3.754;2023-07-29T06:44:54;16.98;;;6.60;;
19782;SDS011;10051;40.294;-3.754;2023-07-29T06:47:20;12.60;;;5.90;;
19782;SDS011;10051;40.294;-3.754;2023-07-29T06:49:45;16.05;;;5.80;;
19782;SDS011;10051;40.294;-3.754;2023-07-29T06:52:12;13.15;;;5.57;;
19782;SDS011;10051;40.294;-3.754;2023-07-29T06:54:37;16.98;;;5.93;;
19782;SDS011;10051;40.294;-3.754;2023-07-29T06:57:03;14.48;;;5.60;;
19782;SDS011;10051;40.294;-3.754;2023-07-29T06:59:29;10.60;;;5.30;;
19782;SDS011;10051;40.294;-3.754;2023-07-29T07:01:54;14.15;;;5.60;;
19782;SDS011;10051;40.294;-3.754;2023-07-29T07:04:20;11.15;;;5.57;;
19782;SDS011;10051;40.294;-3.754;2023-07-29T07:06:45;11.10;;;5.50;;
19782;SDS011;10051;40.294;-3.754;2023-07-29T07:09:11;12.85;;;5.35;;
19782;SDS011;10051;40.294;-3.754;2023-07-29T07:11:36;11.60;;;5.00;;
19782;SDS011;10051;40.294;-3.754;2023-07-29T07:14:02;17.42;;;4.70;;
19782;SDS011;10051;40.294;-3.754;2023-07-29T07:16:28;14.20;;;4.70;;
19782;SDS011;10051;40.294;-3.754;2023-07-29T07:18:56;15.88;;;4.95;;
19782;SDS011;10051;40.294;-3.754;2023-07-29T07:21:22;14.57;;;4.95;;
19782;SDS011;10051;40.294;-3.754;2023-07-29T07:23:49;11.85;;;4.63;;
19782;SDS011;10051;40.294;-3.754;2023-07-29T07:26:15;13.07;;;4.70;;
19782;SDS011;10051;40.294;-3.754;2023-07-29T07:28:41;10.23;;;4.95;;
19782;SDS011;10051;40.294;-3.754;2023-07-29T07:31:06;11.68;;;4.90;;
19782;SDS011;10051;40.294;-3.754;2023-07-29T07:33:35;8.80;;;5.00;;
19782;SDS011;10051;40.294;-3.754;2023-07-29T07:36:00;13.27;;;4.43;;
19782;SDS011;10051;40.294;-3.754;2023-07-29T07:38:26;11.55;;;4.45;;
19782;SDS011;10051;40.294;-3.754;2023-07-29T07:40:52;11.68;;;3.88;;
19782;SDS011;10051;40.294;-3.754;2023-07-29T07:43:20;12.52;;;3.80;;
19782;SDS011;10051;40.294;-3.754;2023-07-29T07:45:45;8.40;;;3.67;;
19782;SDS011;10051;40.294;-3.754;2023-07-29T07:48:11;9.27;;;3.58;;
19782;SDS011;10051;40.294;-3.754;2023-07-29T07:50:38;10.38;;;3.80;;
19782;SDS011;10051;40.294;-3.754;2023-07-29T07:53:04;11.93;;;4.70;;
19782;SDS011;10051;40.294;-3.754;2023-07-29T07:55:30;10.38;;;4.20;;
19782;SDS011;10051;40.294;-3.754;2023-07-29T07:57:55;11.60;;;3.83;;
19782;SDS011;10051;40.294;-3.754;2023-07-29T08:00:21;9.70;;;3.70;;
19782;SDS011;10051;40.294;-3.754;2023-07-29T08:02:46;6.47;;;3.50;;
19782;SDS011;10051;40.294;-3.754;2023-07-29T08:05:14;13.90;;;3.53;;
19782;SDS011;10051;40.294;-3.754;2023-07-29T08:07:40;8.85;;;3.70;;
19782;SDS011;10051;40.294;-3.754;2023-07-29T08:10:06;10.32;;;3.75;;
19782;SDS011;10051;40.294;-3.754;2023-07-29T08:12:32;10.30;;;3.60;;
19782;SDS011;10051;40.294;-3.754;2023-07-29T08:14:57;9.98;;;3.67;;
19782;SDS011;10051;40.294;-3.754;2023-07-29T08:17:23;8.57;;;3.50;;
19782;SDS011;10051;40.294;-3.754;2023-07-29T08:19:48;7.63;;;3.40;;
19782;SDS011;10051;40.294;-3.754;2023-07-29T08:22:14;11.52;;;3.20;;
19782;SDS011;10051;40.294;-3.754;2023-07-29T08:24:42;5.60;;;2.92;;
19782;SDS011;10051;40.294;-3.754;2023-07-29T08:27:08;7.50;;;3.20;;
19782;SDS011;10051;40.294;-3.754;2023-07-29T08:29:33;7.95;;;3.15;;
19782;SDS011;10051;40.294;-3.754;2023-07-29T08:31:59;7.78;;;3.10;;
19782;SDS011;10051;40.294;-3.754;2023-07-29T08:34:24;7.38;;;3.00;;
19782;SDS011;10051;40.294;-3.754;2023-07-29T08:36:50;11.45;;;2.80;;
19782;SDS011;10051;40.294;-3.754;2023-07-29T08:39:15;7.80;;;2.97;;
19782;SDS011;10051;40.294;-3.754;2023-07-29T08:42:03;13.82;;;3.20;;
19782;SDS011;10051;40.294;-3.754;2023-07-29T08:44:42;8.70;;;3.30;;
19782;SDS011;10051;40.294;-3.754;2023-07-29T08:47:08;10.05;;;2.90;;
19782;SDS011;10051;40.294;-3.754;2023-07-29T08:49:35;11.15;;;2.90;;
19782;SDS011;10051;40.294;-3.754;2023-07-29T08:52:01;9.13;;;2.80;;
19782;SDS011;10051;40.294;-3.754;2023-07-29T08:54:29;8.02;;;2.58;;
19782;SDS011;10051;40.294;-3.754;2023-07-29T08:56:54;4.63;;;2.15;;
19782;SDS011;10051;40.294;-3.754;2023-07-29T08:59:20;8.25;;;2.08;;
19782;SDS011;10051;40.294;-3.754;2023-07-29T09:01:46;7.97;;;2.10;;
19782;SDS011;10051;40.294;-3.754;2023-07-29T09:04:12;4.55;;;2.20;;
19782;SDS011;10051;40.294;-3.754;2023-07-29T09:06:39;5.68;;;2.00;;
19782;SDS011;10051;40.294;-3.754;2023-07-29T09:09:05;5.78;;;2.10;;
19782;SDS011;10051;40.294;-3.754;2023-07-29T09:11:32;5.88;;;2.10;;
19782;SDS011;10051;40.294;-3.754;2023-07-29T09:13:58;13.50;;;2.53;;
19782;SDS011;10051;40.294;-3.754;2023-07-29T09:16:24;5.88;;;2.30;;
19782;SDS011;10051;40.294;-3.754;2023-07-29T09:18:52;8.77;;;2.45;;
19782;SDS011;10051;40.294;-3.754;2023-07-29T09:21:27;4.97;;;2.10;;
19782;SDS011;10051;40.294;-3.754;2023-07-29T09:23:54;4.60;;;2.20;;
19782;SDS011;10051;40.294;-3.754;2023-07-29T09:26:24;3.55;;;2.20;;
19782;SDS011;10051;40.294;-3.754;2023-07-29T09:28:51;4.22;;;2.00;;
19782;SDS011;10051;40.294;-3.754;2023-07-29T09:31:23;3.47;;;2.10;;
19782;SDS011;10051;40.294;-3.754;2023-07-29T09:33:50;4.50;;;2.28;;
19782;SDS011;10051;40.294;-3.754;2023-07-29T09:36:22;4.68;;;1.90;;
19782;SDS011;10051;40.294;-3.754;2023-07-29T09:38:54;3.65;;;1.98;;
19782;SDS011;10051;40.294;-3.754;2023-07-29T09:41:24;5.47;;;2.10;;
19782;SDS011;10051;40.294;-3.754;2023-07-29T09:43:56;7.10;;;2.25;;
19782;SDS011;10051;40.294;-3.754;2023-07-29T09:46:24;3.45;;;2.25;;
19782;SDS011;10051;40.294;-3.754;2023-07-29T09:48:53;5.43;;;2.05;;
19782;SDS011;10051;40.294;-3.754;2023-07-29T09:51:20;3.85;;;2.30;;
19782;SDS011;10051;40.294;-3.754;2023-07-29T09:53:50;2.80;;;2.10;;
19782;SDS011;10051;40.294;-3.754;2023-07-29T09:56:17;4.38;;;2.20;;
19782;SDS011;10051;40.294;-3.754;2023-07-29T09:58:46;3.65;;;2.00;;
19782;SDS011;10051;40.294;-3.754;2023-07-29T10:01:13;2.53;;;2.13;;
19782;SDS011;10051;40.294;-3.754;2023-07-29T10:03:39;3.90;;;2.10;;
19782;SDS011;10051;40.294;-3.754;2023-07-29T10:06:06;4.97;;;2.03;;
19782;SDS011;10051;40.294;-3.754;2023-07-29T10:08:32;5.22;;;2.10;;
19782;SDS011;10051;40.294;-3.754;2023-07-29T10:11:03;4.38;;;2.00;;
19782;SDS011;10051;40.294;-3.754;2023-07-29T10:13:31;3.85;;;2.00;;
19782;SDS011;10051;40.294;-3.754;2023-07-29T10:15:58;5.05;;;1.80;;
19782;SDS011;10051;40.294;-3.754;2023-07-29T10:18:27;4.63;;;2.00;;
19782;SDS011;10051;40.294;-3.754;2023-07-29T10:20:53;3.10;;;1.90;;
19782;SDS011;10051;40.294;-3.754;2023-07-29T10:23:21;4.43;;;2.30;;
19782;SDS011;10051;40.294;-3.754;2023-07-29T10:25:50;4.30;;;2.03;;
19782;SDS011;10051;40.294;-3.754;2023-07-29T10:28:23;5.68;;;1.90;;
19782;SDS011;10051;40.294;-3.754;2023-07-29T10:30:51;3.50;;;2.03;;
19782;SDS011;10051;40.294;-3.754;2023-07-29T10:33:17;4.40;;;1.92;;
19782;SDS011;10051;40.294;-3.754;2023-07-29T10:35:43;2.80;;;2.10;;
19782;SDS011;10051;40.294;-3.754;2023-07-29T10:38:15;7.50;;;2.20;;
19782;SDS011;10051;40.294;-3.754;2023-07-29T10:40:50;4.10;;;2.00;;
19782;SDS011;10051;40.294;-3.754;2023-07-29T10:43:25;5.63;;;2.00;;
19782;SDS011;10051;40.294;-3.754;2023-07-29T10:48:54;5.55;;;2.10;;
19782;SDS011;10051;40.294;-3.754;2023-07-29T10:56:48;4.57;;;2.10;;
19782;SDS011;10051;40.294;-3.754;2023-07-29T11:01:45;7.65;;;1.70;;
19782;SDS011;10051;40.294;-3.754;2023-07-29T11:04:25;5.57;;;2.10;;
19782;SDS011;10051;40.294;-3.754;2023-07-29T11:15:20;4.43;;;2.20;;
19782;SDS011;10051;40.294;-3.754;2023-07-29T11:17:52;4.13;;;1.90;;
19782;SDS011;10051;40.294;-3.754;2023-07-29T11:20:20;3.58;;;1.63;;
19782;SDS011;10051;40.294;-3.754;2023-07-29T11:22:47;2.42;;;1.50;;
19782;SDS011;10051;40.294;-3.754;2023-07-29T11:25:14;3.45;;;1.80;;
19782;SDS011;10051;40.294;-3.754;2023-07-29T11:27:40;2.30;;;1.70;;
19782;SDS011;10051;40.294;-3.754;2023-07-29T11:30:08;4.45;;;1.70;;
19782;SDS011;10051;40.294;-3.754;2023-07-29T11:32:35;3.03;;;1.40;;
19782;SDS011;10051;40.294;-3.754;2023-07-29T11:35:06;3.70;;;1.48;;
19782;SDS011;10051;40.294;-3.754;2023-07-29T11:37:37;3.00;;;1.63;;
19782;SDS011;10051;40.294;-3.754;2023-07-29T11:40:03;1.60;;;1.40;;
19782;SDS011;10051;40.294;-3.754;2023-07-29T11:42:33;3.92;;;1.50;;
19782;SDS011;10051;40.294;-3.754;2023-07-29T11:45:00;4.90;;;1.33;;
19782;SDS011;10051;40.294;-3.754;2023-07-29T11:47:27;5.75;;;1.20;;
19782;SDS011;10051;40.294;-3.754;2023-07-29T11:49:53;1.95;;;1.20;;
19782;SDS011;10051;40.294;-3.754;2023-07-29T11:52:19;2.25;;;1.30;;
19782;SDS011;10051;40.294;-3.754;2023-07-29T11:54:46;4.20;;;1.35;;
19782;SDS011;10051;40.294;-3.754;2023-07-29T11:57:13;1.85;;;1.20;;
19782;SDS011;10051;40.294;-3.754;2023-07-29T11:59:40;1.70;;;1.20;;
19782;SDS011;10051;40.294;-3.754;2023-07-29T12:02:11;2.88;;;1.13;;
19782;SDS011;10051;40.294;-3.754;2023-07-29T12:04:40;3.28;;;1.10;;
19782;SDS011;10051;40.294;-3.754;2023-07-29T12:07:06;2.33;;;1.20;;
19782;SDS011;10051;40.294;-3.754;2023-07-29T12:09:33;2.22;;;1.00;;
19782;SDS011;10051;40.294;-3.754;2023-07-29T12:11:59;3.00;;;1.10;;
19782;SDS011;10051;40.294;-3.754;2023-07-29T12:14:28;2.22;;;0.98;;
19782;SDS011;10051;40.294;-3.754;2023-07-29T12:16:54;1.23;;;1.08;;
19782;SDS011;10051;40.294;-3.754;2023-07-29T12:19:20;2.80;;;1.15;;
19782;SDS011;10051;40.294;-3.754;2023-07-29T12:21:47;1.27;;;0.95;;
19782;SDS011;10051;40.294;-3.754;2023-07-29T12:24:14;1.20;;;1.10;;
19782;SDS011;10051;40.294;-3.754;2023-07-29T12:26:40;1.58;;;0.90;;
19782;SDS011;10051;40.294;-3.754;2023-07-29T12:31:39;1.83;;;1.08;;
19782;SDS011;10051;40.294;-3.754;2023-07-29T12:34:05;1.00;;;0.80;;
19782;SDS011;10051;40.294;-3.754;2023-07-29T12:36:43;1.08;;;0.98;;
19782;SDS011;10051;40.294;-3.754;2023-07-29T12:39:20;1.20;;;1.05;;
19782;SDS011;10051;40.294;-3.754;2023-07-29T12:41:47;1.20;;;1.10;;
19782;SDS011;10051;40.294;-3.754;2023-07-29T12:44:14;1.30;;;0.80;;
19782;SDS011;10051;40.294;-3.754;2023-07-29T12:46:40;1.30;;;0.82;;
19782;SDS011;10051;40.294;-3.754;2023-07-29T12:49:05;2.83;;;1.00;;
19782;SDS011;10051;40.294;-3.754;2023-07-29T12:51:31;3.13;;;1.00;;
19782;SDS011;10051;40.294;-3.754;2023-07-29T12:53:57;3.50;;;0.95;;
19782;SDS011;10051;40.294;-3.754;2023-07-29T12:56:23;0.73;;;0.73;;
19782;SDS011;10051;40.294;-3.754;2023-07-29T12:58:48;4.07;;;0.93;;
19782;SDS011;10051;40.294;-3.754;2023-07-29T13:01:14;1.00;;;0.80;;
19782;SDS011;10051;40.294;-3.754;2023-07-29T13:03:43;2.38;;;0.80;;
19782;SDS011;10051;40.294;-3.754;2023-07-29T13:06:09;3.08;;;0.65;;
19782;SDS011;10051;40.294;-3.754;2023-07-29T13:08:35;1.38;;;0.80;;
19782;SDS011;10051;40.294;-3.754;2023-07-29T13:11:01;1.65;;;0.77;;
19782;SDS011;10051;40.294;-3.754;2023-07-29T13:13:26;2.33;;;0.80;;
19782;SDS011;10051;40.294;-3.754;2023-07-29T13:15:52;1.35;;;0.70;;
19782;SDS011;10051;40.294;-3.754;2023-07-29T13:18:18;2.28;;;0.80;;
19782;SDS011;10051;40.294;-3.754;2023-07-29T13:20:43;1.63;;;0.75;;
19782;SDS011;10051;40.294;-3.754;2023-07-29T13:23:09;2.45;;;0.90;;
19782;SDS011;10051;40.294;-3.754;2023-07-29T13:25:35;1.20;;;0.75;;
19782;SDS011;10051;40.294;-3.754;2023-07-29T13:28:00;1.15;;;0.70;;
19782;SDS011;10051;40.294;-3.754;2023-07-29T13:30:26;0.93;;;0.80;;
19782;SDS011;10051;40.294;-3.754;2023-07-29T13:32:52;2.63;;;0.90;;
19782;SDS011;10051;40.294;-3.754;2023-07-29T13:35:18;1.77;;;0.85;;
19782;SDS011;10051;40.294;-3.754;2023-07-29T13:37:43;2.95;;;0.90;;
19782;SDS011;10051;40.294;-3.754;2023-07-29T13:40:09;0.80;;;0.70;;
19782;SDS011;10051;40.294;-3.754;2023-07-29T13:42:35;2.22;;;0.80;;
19782;SDS011;10051;40.294;-3.754;2023-07-29T13:45:00;1.52;;;0.80;;
19782;SDS011;10051;40.294;-3.754;2023-07-29T13:47:26;3.58;;;0.90;;
19782;SDS011;10051;40.294;-3.754;2023-07-29T13:49:52;3.22;;;1.00;;
19782;SDS011;10051;40.294;-3.754;2023-07-29T13:52:17;2.53;;;1.02;;
19782;SDS011;10051;40.294;-3.754;2023-07-29T13:54:43;2.13;;;0.77;;
19782;SDS011;10051;40.294;-3.754;2023-07-29T13:57:09;1.30;;;0.90;;
19782;SDS011;10051;40.294;-3.754;2023-07-29T13:59:35;2.92;;;0.90;;
19782;SDS011;10051;40.294;-3.754;2023-07-29T14:02:04;1.85;;;0.70;;
19782;SDS011;10051;40.294;-3.754;2023-07-29T14:04:30;1.67;;;0.90;;
19782;SDS011;10051;40.294;-3.754;2023-07-29T14:06:57;1.80;;;0.90;;
19782;SDS011;10051;40.294;-3.754;2023-07-29T14:09:22;1.67;;;0.75;;
19782;SDS011;10051;40.294;-3.754;2023-07-29T14:11:48;3.83;;;1.00;;
19782;SDS011;10051;40.294;-3.754;2023-07-29T14:14:14;2.17;;;0.93;;
19782;SDS011;10051;40.294;-3.754;2023-07-29T14:16:40;1.42;;;1.00;;
19782;SDS011;10051;40.294;-3.754;2023-07-29T14:19:09;1.45;;;0.90;;
19782;SDS011;10051;40.294;-3.754;2023-07-29T14:21:35;1.40;;;1.00;;
19782;SDS011;10051;40.294;-3.754;2023-07-29T14:24:00;1.17;;;0.90;;
19782;SDS011;10051;40.294;-3.754;2023-07-29T14:26:26;1.17;;;0.70;;
19782;SDS011;10051;40.294;-3.754;2023-07-29T14:28:51;2.35;;;0.80;;
19782;SDS011;10051;40.294;-3.754;2023-07-29T14:31:17;1.55;;;0.82;;
19782;SDS011;10051;40.294;-3.754;2023-07-29T14:33:43;2.47;;;0.90;;
19782;SDS011;10051;40.294;-3.754;2023-07-29T14:36:09;2.63;;;0.90;;
19782;SDS011;10051;40.294;-3.754;2023-07-29T14:38:35;3.20;;;1.10;;
19782;SDS011;10051;40.294;-3.754;2023-07-29T14:41:01;4.07;;;1.20;;
19782;SDS011;10051;40.294;-3.754;2023-07-29T14:43:27;2.03;;;1.20;;
19782;SDS011;10051;40.294;-3.754;2023-07-29T14:45:52;1.25;;;0.90;;
19782;SDS011;10051;40.294;-3.754;2023-07-29T14:48:18;4.10;;;1.00;;
19782;SDS011;10051;40.294;-3.754;2023-07-29T14:50:44;1.25;;;1.00;;
19782;SDS011;10051;40.294;-3.754;2023-07-29T14:53:10;2.53;;;1.00;;
19782;SDS011;10051;40.294;-3.754;2023-07-29T14:55:36;3.28;;;1.00;;
19782;SDS011;10051;40.294;-3.754;2023-07-29T14:58:02;3.22;;;1.02;;